sensor_id;sensor_type;location;lat;lon;timestamp;temperature;humidity
680;DHT22;322;48.846;9.230;2023-07-13T00:01:09;19.90;82.00
680;DHT22;322;48.846;9.230;2023-07-13T00:03:37;19.80;82.30
680;DHT22;322;48.846;9.230;2023-07-13T00:06:08;19.90;81.70
680;DHT22;322;48.846;9.230;2023-07-13T00:08:37;19.90;82.50
680;DHT22;322;48.846;9.230;2023-07-13T00:11:06;19.90;81.50
680;DHT22;322;48.846;9.230;2023-07-13T00:13:34;19.80;81.10
680;DHT22;322;48.846;9.230;2023-07-13T00:16:06;19.80;82.10
680;DHT22;322;48.846;9.230;2023-07-13T00:18:35;19.70;81.30
680;DHT22;322;48.846;9.230;2023-07-13T00:21:04;19.70;81.50
680;DHT22;322;48.846;9.230;2023-07-13T00:23:32;19.70;81.70
680;DHT22;322;48.846;9.230;2023-07-13T00:26:02;19.60;81.40
680;DHT22;322;48.846;9.230;2023-07-13T00:28:30;19.60;80.70
680;DHT22;322;48.846;9.230;2023-07-13T00:30:58;19.60;81.10
680;DHT22;322;48.846;9.230;2023-07-13T00:33:29;19.60;81.30
680;DHT22;322;48.846;9.230;2023-07-13T00:35:57;19.50;81.40
680;DHT22;322;48.846;9.230;2023-07-13T00:38:25;19.50;81.60
680;DHT22;322;48.846;9.230;2023-07-13T00:40:53;19.50;81.00
680;DHT22;322;48.846;9.230;2023-07-13T00:43:23;19.40;80.70
680;DHT22;322;48.846;9.230;2023-07-13T00:46:18;19.40;81.60
680;DHT22;322;48.846;9.230;2023-07-13T00:48:48;19.30;81.90
680;DHT22;322;48.846;9.230;2023-07-13T00:51:22;19.20;81.20
680;DHT22;322;48.846;9.230;2023-07-13T00:53:53;19.20;82.60
680;DHT22;322;48.846;9.230;2023-07-13T00:56:22;19.10;82.80
680;DHT22;322;48.846;9.230;2023-07-13T00:58:50;19.00;82.90
680;DHT22;322;48.846;9.230;2023-07-13T01:01:18;19.00;83.60
680;DHT22;322;48.846;9.230;2023-07-13T01:03:51;18.90;84.10
680;DHT22;322;48.846;9.230;2023-07-13T01:06:19;18.90;84.10
680;DHT22;322;48.846;9.230;2023-07-13T01:08:47;18.90;84.10
680;DHT22;322;48.846;9.230;2023-07-13T01:11:20;18.80;88.90
680;DHT22;322;48.846;9.230;2023-07-13T01:13:49;18.60;87.90
680;DHT22;322;48.846;9.230;2023-07-13T01:16:23;18.50;87.80
680;DHT22;322;48.846;9.230;2023-07-13T01:18:54;18.40;90.70
680;DHT22;322;48.846;9.230;2023-07-13T01:21:28;18.40;87.00
680;DHT22;322;48.846;9.230;2023-07-13T01:23:58;18.30;91.50
680;DHT22;322;48.846;9.230;2023-07-13T01:26:26;18.10;89.40
680;DHT22;322;48.846;9.230;2023-07-13T01:28:54;18.10;90.80
680;DHT22;322;48.846;9.230;2023-07-13T01:31:24;18.00;91.00
680;DHT22;322;48.846;9.230;2023-07-13T01:33:52;17.90;90.40
680;DHT22;322;48.846;9.230;2023-07-13T01:36:20;17.80;91.40
680;DHT22;322;48.846;9.230;2023-07-13T01:38:50;17.80;93.30
680;DHT22;322;48.846;9.230;2023-07-13T01:41:18;17.60;91.90
680;DHT22;322;48.846;9.230;2023-07-13T01:43:46;17.50;93.50
680;DHT22;322;48.846;9.230;2023-07-13T01:46:14;17.60;92.30
680;DHT22;322;48.846;9.230;2023-07-13T01:48:50;17.50;92.50
680;DHT22;322;48.846;9.230;2023-07-13T01:51:19;17.50;94.00
680;DHT22;322;48.846;9.230;2023-07-13T01:53:47;17.30;92.30
680;DHT22;322;48.846;9.230;2023-07-13T01:56:16;17.40;93.60
680;DHT22;322;48.846;9.230;2023-07-13T01:58:45;17.50;94.70
680;DHT22;322;48.846;9.230;2023-07-13T02:01:13;17.40;94.70
680;DHT22;322;48.846;9.230;2023-07-13T02:03:41;17.30;95.20
680;DHT22;322;48.846;9.230;2023-07-13T02:06:12;17.20;95.80
680;DHT22;322;48.846;9.230;2023-07-13T02:08:43;17.20;95.70
680;DHT22;322;48.846;9.230;2023-07-13T02:11:17;17.20;96.50
680;DHT22;322;48.846;9.230;2023-07-13T02:13:44;17.10;95.10
680;DHT22;322;48.846;9.230;2023-07-13T02:16:12;17.00;96.30
680;DHT22;322;48.846;9.230;2023-07-13T02:18:41;17.00;97.30
680;DHT22;322;48.846;9.230;2023-07-13T02:21:12;17.00;94.60
680;DHT22;322;48.846;9.230;2023-07-13T02:23:40;17.00;95.60
680;DHT22;322;48.846;9.230;2023-07-13T02:26:07;17.00;96.40
680;DHT22;322;48.846;9.230;2023-07-13T02:28:37;17.00;96.50
680;DHT22;322;48.846;9.230;2023-07-13T02:31:06;17.20;94.70
680;DHT22;322;48.846;9.230;2023-07-13T02:33:34;17.20;94.90
680;DHT22;322;48.846;9.230;2023-07-13T02:36:02;17.30;94.30
680;DHT22;322;48.846;9.230;2023-07-13T02:38:32;17.10;94.20
680;DHT22;322;48.846;9.230;2023-07-13T02:41:01;17.00;95.40
680;DHT22;322;48.846;9.230;2023-07-13T02:43:29;17.00;94.90
680;DHT22;322;48.846;9.230;2023-07-13T02:45:58;17.10;96.50
680;DHT22;322;48.846;9.230;2023-07-13T02:48:30;17.10;94.80
680;DHT22;322;48.846;9.230;2023-07-13T02:50:58;17.00;94.60
680;DHT22;322;48.846;9.230;2023-07-13T02:53:26;17.00;94.80
680;DHT22;322;48.846;9.230;2023-07-13T02:55:54;17.10;95.40
680;DHT22;322;48.846;9.230;2023-07-13T02:58:22;17.00;96.00
680;DHT22;322;48.846;9.230;2023-07-13T03:00:50;17.00;95.20
680;DHT22;322;48.846;9.230;2023-07-13T03:03:19;16.80;95.60
680;DHT22;322;48.846;9.230;2023-07-13T03:05:47;16.80;97.90
680;DHT22;322;48.846;9.230;2023-07-13T03:08:17;16.80;99.80
680;DHT22;322;48.846;9.230;2023-07-13T03:10:45;16.70;97.90
680;DHT22;322;48.846;9.230;2023-07-13T03:13:13;16.60;97.10
680;DHT22;322;48.846;9.230;2023-07-13T03:15:41;16.60;98.90
680;DHT22;322;48.846;9.230;2023-07-13T03:18:09;16.70;99.90
680;DHT22;322;48.846;9.230;2023-07-13T03:20:38;16.70;99.40
680;DHT22;322;48.846;9.230;2023-07-13T03:23:06;16.80;99.90
680;DHT22;322;48.846;9.230;2023-07-13T03:25:34;16.80;99.90
680;DHT22;322;48.846;9.230;2023-07-13T03:28:02;16.90;99.90
680;DHT22;322;48.846;9.230;2023-07-13T03:30:31;16.90;99.90
680;DHT22;322;48.846;9.230;2023-07-13T03:32:59;16.80;99.90
680;DHT22;322;48.846;9.230;2023-07-13T03:35:27;16.80;99.90
680;DHT22;322;48.846;9.230;2023-07-13T03:37:56;16.90;99.90
680;DHT22;322;48.846;9.230;2023-07-13T03:40:25;17.00;99.90
680;DHT22;322;48.846;9.230;2023-07-13T03:42:53;17.00;99.90
680;DHT22;322;48.846;9.230;2023-07-13T03:45:24;17.10;99.90
680;DHT22;322;48.846;9.230;2023-07-13T03:47:52;17.20;99.90
680;DHT22;322;48.846;9.230;2023-07-13T03:50:20;17.30;99.90
680;DHT22;322;48.846;9.230;2023-07-13T03:52:48;17.30;99.90
680;DHT22;322;48.846;9.230;2023-07-13T03:55:17;17.30;99.90
680;DHT22;322;48.846;9.230;2023-07-13T03:57:45;17.30;99.90
680;DHT22;322;48.846;9.230;2023-07-13T04:00:15;17.40;99.90
680;DHT22;322;48.846;9.230;2023-07-13T04:02:46;17.50;99.90
680;DHT22;322;48.846;9.230;2023-07-13T04:05:16;17.70;99.90
680;DHT22;322;48.846;9.230;2023-07-13T04:07:45;17.70;99.90
680;DHT22;322;48.846;9.230;2023-07-13T04:10:14;17.60;99.90
680;DHT22;322;48.846;9.230;2023-07-13T04:12:45;17.40;99.90
680;DHT22;322;48.846;9.230;2023-07-13T04:15:13;17.30;99.90
680;DHT22;322;48.846;9.230;2023-07-13T04:17:41;17.30;99.90
680;DHT22;322;48.846;9.230;2023-07-13T04:20:10;17.30;99.90
680;DHT22;322;48.846;9.230;2023-07-13T04:22:38;17.40;99.90
680;DHT22;322;48.846;9.230;2023-07-13T04:25:06;17.70;99.90
680;DHT22;322;48.846;9.230;2023-07-13T04:27:34;17.80;99.90
680;DHT22;322;48.846;9.230;2023-07-13T04:30:05;17.90;99.90
680;DHT22;322;48.846;9.230;2023-07-13T04:32:33;18.00;99.70
680;DHT22;322;48.846;9.230;2023-07-13T04:35:01;18.00;99.70
680;DHT22;322;48.846;9.230;2023-07-13T04:37:30;18.10;99.00
680;DHT22;322;48.846;9.230;2023-07-13T04:39:57;18.00;98.40
680;DHT22;322;48.846;9.230;2023-07-13T04:42:26;18.00;98.20
680;DHT22;322;48.846;9.230;2023-07-13T04:44:54;18.10;97.50
680;DHT22;322;48.846;9.230;2023-07-13T04:47:23;18.00;97.70
680;DHT22;322;48.846;9.230;2023-07-13T04:49:51;18.00;98.50
680;DHT22;322;48.846;9.230;2023-07-13T04:52:19;17.90;98.40
680;DHT22;322;48.846;9.230;2023-07-13T04:54:47;17.80;98.30
680;DHT22;322;48.846;9.230;2023-07-13T04:57:15;17.70;98.30
680;DHT22;322;48.846;9.230;2023-07-13T04:59:43;17.70;98.30
680;DHT22;322;48.846;9.230;2023-07-13T05:02:11;17.70;98.00
680;DHT22;322;48.846;9.230;2023-07-13T05:04:41;17.70;97.70
680;DHT22;322;48.846;9.230;2023-07-13T05:07:10;17.70;98.20
680;DHT22;322;48.846;9.230;2023-07-13T05:09:38;17.70;97.80
680;DHT22;322;48.846;9.230;2023-07-13T05:12:08;17.80;97.40
680;DHT22;322;48.846;9.230;2023-07-13T05:14:36;17.80;97.40
680;DHT22;322;48.846;9.230;2023-07-13T05:17:04;18.00;97.60
680;DHT22;322;48.846;9.230;2023-07-13T05:19:32;18.20;96.60
680;DHT22;322;48.846;9.230;2023-07-13T05:22:01;18.40;95.10
680;DHT22;322;48.846;9.230;2023-07-13T05:24:30;18.50;93.60
680;DHT22;322;48.846;9.230;2023-07-13T05:26:58;18.70;92.60
680;DHT22;322;48.846;9.230;2023-07-13T05:29:26;18.80;93.80
680;DHT22;322;48.846;9.230;2023-07-13T05:31:55;19.00;94.10
680;DHT22;322;48.846;9.230;2023-07-13T05:34:24;19.10;93.90
680;DHT22;322;48.846;9.230;2023-07-13T05:36:53;19.10;94.40
680;DHT22;322;48.846;9.230;2023-07-13T05:39:22;19.30;94.60
680;DHT22;322;48.846;9.230;2023-07-13T05:41:51;19.30;94.60
680;DHT22;322;48.846;9.230;2023-07-13T05:44:19;19.30;94.00
680;DHT22;322;48.846;9.230;2023-07-13T05:46:47;19.40;94.20
680;DHT22;322;48.846;9.230;2023-07-13T05:49:15;19.40;93.60
680;DHT22;322;48.846;9.230;2023-07-13T05:51:43;19.50;93.00
680;DHT22;322;48.846;9.230;2023-07-13T05:54:11;19.50;93.20
680;DHT22;322;48.846;9.230;2023-07-13T05:56:40;19.50;94.50
680;DHT22;322;48.846;9.230;2023-07-13T05:59:08;19.40;95.20
680;DHT22;322;48.846;9.230;2023-07-13T06:01:36;19.30;93.30
680;DHT22;322;48.846;9.230;2023-07-13T06:04:04;19.20;93.60
680;DHT22;322;48.846;9.230;2023-07-13T06:06:32;19.20;93.20
680;DHT22;322;48.846;9.230;2023-07-13T06:09:00;19.20;93.00
680;DHT22;322;48.846;9.230;2023-07-13T06:11:28;19.30;91.80
680;DHT22;322;48.846;9.230;2023-07-13T06:13:58;19.50;91.70
680;DHT22;322;48.846;9.230;2023-07-13T06:16:26;19.60;89.20
680;DHT22;322;48.846;9.230;2023-07-13T06:18:54;19.70;88.40
680;DHT22;322;48.846;9.230;2023-07-13T06:21:23;19.80;88.80
680;DHT22;322;48.846;9.230;2023-07-13T06:23:51;19.80;89.70
680;DHT22;322;48.846;9.230;2023-07-13T06:26:20;19.80;85.70
680;DHT22;322;48.846;9.230;2023-07-13T06:28:48;19.90;86.10
680;DHT22;322;48.846;9.230;2023-07-13T06:31:18;19.90;85.50
680;DHT22;322;48.846;9.230;2023-07-13T06:33:46;19.90;86.70
680;DHT22;322;48.846;9.230;2023-07-13T06:36:14;19.80;85.50
680;DHT22;322;48.846;9.230;2023-07-13T06:38:42;19.60;86.60
680;DHT22;322;48.846;9.230;2023-07-13T06:41:11;19.50;87.10
680;DHT22;322;48.846;9.230;2023-07-13T06:43:40;19.60;87.60
680;DHT22;322;48.846;9.230;2023-07-13T06:46:09;19.70;86.30
680;DHT22;322;48.846;9.230;2023-07-13T06:48:39;19.70;84.20
680;DHT22;322;48.846;9.230;2023-07-13T06:51:08;20.00;81.40
680;DHT22;322;48.846;9.230;2023-07-13T06:53:36;20.20;78.60
680;DHT22;322;48.846;9.230;2023-07-13T06:56:04;20.40;79.20
680;DHT22;322;48.846;9.230;2023-07-13T06:58:34;20.60;76.20
680;DHT22;322;48.846;9.230;2023-07-13T07:01:02;20.70;76.70
680;DHT22;322;48.846;9.230;2023-07-13T07:03:32;20.90;74.00
680;DHT22;322;48.846;9.230;2023-07-13T07:06:03;21.10;71.70
680;DHT22;322;48.846;9.230;2023-07-13T07:08:34;21.20;73.20
680;DHT22;322;48.846;9.230;2023-07-13T07:11:02;21.20;72.30
680;DHT22;322;48.846;9.230;2023-07-13T07:13:30;21.20;72.30
680;DHT22;322;48.846;9.230;2023-07-13T07:15:58;21.20;68.90
680;DHT22;322;48.846;9.230;2023-07-13T07:18:26;21.20;70.20
680;DHT22;322;48.846;9.230;2023-07-13T07:20:54;21.10;69.10
680;DHT22;322;48.846;9.230;2023-07-13T07:23:24;21.10;69.30
680;DHT22;322;48.846;9.230;2023-07-13T07:25:52;21.00;68.40
680;DHT22;322;48.846;9.230;2023-07-13T07:28:20;21.10;69.60
680;DHT22;322;48.846;9.230;2023-07-13T07:30:54;21.10;69.80
680;DHT22;322;48.846;9.230;2023-07-13T07:33:25;21.20;68.50
680;DHT22;322;48.846;9.230;2023-07-13T07:35:53;21.10;70.10
680;DHT22;322;48.846;9.230;2023-07-13T07:38:25;21.20;72.10
680;DHT22;322;48.846;9.230;2023-07-13T07:40:53;21.40;71.90
680;DHT22;322;48.846;9.230;2023-07-13T07:43:24;21.40;67.10
680;DHT22;322;48.846;9.230;2023-07-13T07:45:52;21.50;66.60
680;DHT22;322;48.846;9.230;2023-07-13T07:48:20;21.60;63.50
680;DHT22;322;48.846;9.230;2023-07-13T07:50:48;21.80;62.60
680;DHT22;322;48.846;9.230;2023-07-13T07:53:16;21.70;62.10
680;DHT22;322;48.846;9.230;2023-07-13T07:55:45;21.80;64.80
680;DHT22;322;48.846;9.230;2023-07-13T07:58:17;21.80;62.10
680;DHT22;322;48.846;9.230;2023-07-13T08:01:05;21.80;62.40
680;DHT22;322;48.846;9.230;2023-07-13T08:03:36;21.80;63.50
680;DHT22;322;48.846;9.230;2023-07-13T08:06:07;21.80;60.70
680;DHT22;322;48.846;9.230;2023-07-13T08:08:38;21.80;60.00
680;DHT22;322;48.846;9.230;2023-07-13T08:11:08;21.80;59.50
680;DHT22;322;48.846;9.230;2023-07-13T08:13:40;21.80;59.30
680;DHT22;322;48.846;9.230;2023-07-13T08:16:08;21.90;58.30
680;DHT22;322;48.846;9.230;2023-07-13T08:18:36;22.00;58.70
680;DHT22;322;48.846;9.230;2023-07-13T08:21:05;22.10;57.10
680;DHT22;322;48.846;9.230;2023-07-13T08:23:33;22.20;57.90
680;DHT22;322;48.846;9.230;2023-07-13T08:26:02;22.20;57.90
680;DHT22;322;48.846;9.230;2023-07-13T08:28:33;22.30;58.00
680;DHT22;322;48.846;9.230;2023-07-13T08:31:02;22.40;58.00
680;DHT22;322;48.846;9.230;2023-07-13T08:33:30;22.70;57.10
680;DHT22;322;48.846;9.230;2023-07-13T08:35:58;22.80;56.50
680;DHT22;322;48.846;9.230;2023-07-13T08:38:26;22.80;56.20
680;DHT22;322;48.846;9.230;2023-07-13T08:40:56;22.90;56.90
680;DHT22;322;48.846;9.230;2023-07-13T08:43:27;23.00;55.70
680;DHT22;322;48.846;9.230;2023-07-13T08:46:02;23.20;53.40
680;DHT22;322;48.846;9.230;2023-07-13T08:48:35;23.20;55.20
680;DHT22;322;48.846;9.230;2023-07-13T08:51:12;23.30;55.60
680;DHT22;322;48.846;9.230;2023-07-13T08:53:49;23.40;53.40
680;DHT22;322;48.846;9.230;2023-07-13T08:56:19;23.40;52.60
680;DHT22;322;48.846;9.230;2023-07-13T08:58:52;23.40;53.70
680;DHT22;322;48.846;9.230;2023-07-13T09:01:30;23.40;53.20
680;DHT22;322;48.846;9.230;2023-07-13T09:04:04;23.50;53.10
680;DHT22;322;48.846;9.230;2023-07-13T09:06:40;23.60;53.00
680;DHT22;322;48.846;9.230;2023-07-13T09:09:18;23.80;52.90
680;DHT22;322;48.846;9.230;2023-07-13T09:11:53;23.90;53.10
680;DHT22;322;48.846;9.230;2023-07-13T09:14:33;24.00;52.10
680;DHT22;322;48.846;9.230;2023-07-13T09:17:05;23.90;51.00
680;DHT22;322;48.846;9.230;2023-07-13T09:19:34;23.80;51.30
680;DHT22;322;48.846;9.230;2023-07-13T09:22:03;24.00;51.70
680;DHT22;322;48.846;9.230;2023-07-13T09:24:38;24.10;52.00
680;DHT22;322;48.846;9.230;2023-07-13T09:27:14;24.40;52.00
680;DHT22;322;48.846;9.230;2023-07-13T09:29:48;24.50;51.00
680;DHT22;322;48.846;9.230;2023-07-13T09:32:21;24.50;52.30
680;DHT22;322;48.846;9.230;2023-07-13T09:34:51;24.60;52.90
680;DHT22;322;48.846;9.230;2023-07-13T09:37:22;24.50;53.10
680;DHT22;322;48.846;9.230;2023-07-13T09:39:52;24.50;50.90
680;DHT22;322;48.846;9.230;2023-07-13T09:42:22;24.60;50.00
680;DHT22;322;48.846;9.230;2023-07-13T09:44:53;24.50;50.20
680;DHT22;322;48.846;9.230;2023-07-13T09:47:24;24.50;50.00
680;DHT22;322;48.846;9.230;2023-07-13T09:49:57;24.60;50.10
680;DHT22;322;48.846;9.230;2023-07-13T09:52:40;24.70;49.90
680;DHT22;322;48.846;9.230;2023-07-13T09:55:28;24.70;48.70
680;DHT22;322;48.846;9.230;2023-07-13T09:57:57;24.60;48.80
680;DHT22;322;48.846;9.230;2023-07-13T10:00:27;24.70;48.40
680;DHT22;322;48.846;9.230;2023-07-13T10:03:03;25.00;47.90
680;DHT22;322;48.846;9.230;2023-07-13T10:05:41;25.50;49.20
680;DHT22;322;48.846;9.230;2023-07-13T10:08:18;26.50;47.50
680;DHT22;322;48.846;9.230;2023-07-13T10:10:52;26.90;46.20
680;DHT22;322;48.846;9.230;2023-07-13T10:13:37;27.50;45.30
680;DHT22;322;48.846;9.230;2023-07-13T10:16:08;27.50;44.20
680;DHT22;322;48.846;9.230;2023-07-13T10:18:43;27.50;44.30
680;DHT22;322;48.846;9.230;2023-07-13T10:21:15;27.60;43.70
680;DHT22;322;48.846;9.230;2023-07-13T10:24:05;27.70;44.10
680;DHT22;322;48.846;9.230;2023-07-13T10:26:34;27.50;44.50
680;DHT22;322;48.846;9.230;2023-07-13T10:29:07;27.40;44.30
680;DHT22;322;48.846;9.230;2023-07-13T10:31:38;27.30;44.60
680;DHT22;322;48.846;9.230;2023-07-13T10:34:10;26.90;44.70
680;DHT22;322;48.846;9.230;2023-07-13T10:36:41;26.70;45.30
680;DHT22;322;48.846;9.230;2023-07-13T10:39:16;26.70;45.10
680;DHT22;322;48.846;9.230;2023-07-13T10:41:48;26.80;45.20
680;DHT22;322;48.846;9.230;2023-07-13T10:44:22;26.90;45.30
680;DHT22;322;48.846;9.230;2023-07-13T10:46:55;26.90;44.30
680;DHT22;322;48.846;9.230;2023-07-13T10:49:26;26.90;44.10
680;DHT22;322;48.846;9.230;2023-07-13T10:51:55;26.80;44.00
680;DHT22;322;48.846;9.230;2023-07-13T10:54:27;26.80;43.40
680;DHT22;322;48.846;9.230;2023-07-13T10:57:18;27.40;45.40
680;DHT22;322;48.846;9.230;2023-07-13T10:59:48;27.80;43.10
680;DHT22;322;48.846;9.230;2023-07-13T11:02:26;27.70;43.00
680;DHT22;322;48.846;9.230;2023-07-13T11:04:57;27.50;42.80
680;DHT22;322;48.846;9.230;2023-07-13T11:07:27;27.70;44.60
680;DHT22;322;48.846;9.230;2023-07-13T11:09:56;28.00;43.20
680;DHT22;322;48.846;9.230;2023-07-13T11:12:49;28.20;42.10
680;DHT22;322;48.846;9.230;2023-07-13T11:15:32;28.50;41.20
680;DHT22;322;48.846;9.230;2023-07-13T11:18:03;28.00;43.10
680;DHT22;322;48.846;9.230;2023-07-13T11:20:36;27.00;42.80
680;DHT22;322;48.846;9.230;2023-07-13T11:23:26;26.80;43.20
680;DHT22;322;48.846;9.230;2023-07-13T11:25:54;27.70;44.50
680;DHT22;322;48.846;9.230;2023-07-13T11:28:24;28.90;41.50
680;DHT22;322;48.846;9.230;2023-07-13T11:31:11;29.10;39.60
680;DHT22;322;48.846;9.230;2023-07-13T11:33:55;29.20;40.30
680;DHT22;322;48.846;9.230;2023-07-13T11:36:35;28.70;39.30
680;DHT22;322;48.846;9.230;2023-07-13T11:39:17;28.40;40.00
680;DHT22;322;48.846;9.230;2023-07-13T11:41:50;28.10;39.60
680;DHT22;322;48.846;9.230;2023-07-13T11:44:21;28.70;41.10
680;DHT22;322;48.846;9.230;2023-07-13T11:46:51;29.70;39.20
680;DHT22;322;48.846;9.230;2023-07-13T11:49:23;29.10;38.90
680;DHT22;322;48.846;9.230;2023-07-13T11:51:53;28.40;38.90
680;DHT22;322;48.846;9.230;2023-07-13T11:54:28;29.20;40.60
680;DHT22;322;48.846;9.230;2023-07-13T11:56:59;30.10;37.90
680;DHT22;322;48.846;9.230;2023-07-13T11:59:30;30.00;37.00
680;DHT22;322;48.846;9.230;2023-07-13T12:01:59;29.50;37.50
680;DHT22;322;48.846;9.230;2023-07-13T12:04:31;29.10;38.40
680;DHT22;322;48.846;9.230;2023-07-13T12:07:07;29.10;38.70
680;DHT22;322;48.846;9.230;2023-07-13T12:09:35;29.40;38.00
680;DHT22;322;48.846;9.230;2023-07-13T12:12:11;29.60;37.30
680;DHT22;322;48.846;9.230;2023-07-13T12:14:39;29.40;37.70
680;DHT22;322;48.846;9.230;2023-07-13T12:17:16;28.90;38.30
680;DHT22;322;48.846;9.230;2023-07-13T12:19:46;27.80;39.60
680;DHT22;322;48.846;9.230;2023-07-13T12:22:17;26.90;40.00
680;DHT22;322;48.846;9.230;2023-07-13T12:24:47;26.20;42.70
680;DHT22;322;48.846;9.230;2023-07-13T12:27:20;26.00;42.40
680;DHT22;322;48.846;9.230;2023-07-13T12:29:51;26.90;42.30
680;DHT22;322;48.846;9.230;2023-07-13T12:32:21;28.10;39.70
680;DHT22;322;48.846;9.230;2023-07-13T12:34:53;28.50;38.80
680;DHT22;322;48.846;9.230;2023-07-13T12:37:24;29.10;38.20
680;DHT22;322;48.846;9.230;2023-07-13T12:39:52;29.40;37.10
680;DHT22;322;48.846;9.230;2023-07-13T12:42:23;29.40;37.20
680;DHT22;322;48.846;9.230;2023-07-13T12:44:57;29.70;36.80
680;DHT22;322;48.846;9.230;2023-07-13T12:47:26;30.30;36.40
680;DHT22;322;48.846;9.230;2023-07-13T12:49:57;31.00;34.10
680;DHT22;322;48.846;9.230;2023-07-13T12:52:30;31.20;34.10
680;DHT22;322;48.846;9.230;2023-07-13T12:55:04;31.20;33.40
680;DHT22;322;48.846;9.230;2023-07-13T12:57:39;31.00;32.50
680;DHT22;322;48.846;9.230;2023-07-13T13:00:21;30.20;33.50
680;DHT22;322;48.846;9.230;2023-07-13T13:02:53;30.10;34.40
680;DHT22;322;48.846;9.230;2023-07-13T13:05:41;30.30;34.30
680;DHT22;322;48.846;9.230;2023-07-13T13:08:14;31.10;32.70
680;DHT22;322;48.846;9.230;2023-07-13T13:10:42;31.20;32.10
680;DHT22;322;48.846;9.230;2023-07-13T13:13:12;31.20;32.10
680;DHT22;322;48.846;9.230;2023-07-13T13:15:40;30.90;32.70
680;DHT22;322;48.846;9.230;2023-07-13T13:18:15;30.30;33.70
680;DHT22;322;48.846;9.230;2023-07-13T13:20:43;30.00;34.00
680;DHT22;322;48.846;9.230;2023-07-13T13:23:15;29.50;34.90
680;DHT22;322;48.846;9.230;2023-07-13T13:25:45;28.70;35.80
680;DHT22;322;48.846;9.230;2023-07-13T13:28:14;28.60;36.80
680;DHT22;322;48.846;9.230;2023-07-13T13:30:44;28.70;35.50
680;DHT22;322;48.846;9.230;2023-07-13T13:33:13;28.50;36.50
680;DHT22;322;48.846;9.230;2023-07-13T13:35:42;28.30;37.60
680;DHT22;322;48.846;9.230;2023-07-13T13:38:12;28.40;36.60
680;DHT22;322;48.846;9.230;2023-07-13T13:40:43;29.40;35.30
680;DHT22;322;48.846;9.230;2023-07-13T13:43:15;30.50;34.10
680;DHT22;322;48.846;9.230;2023-07-13T13:45:45;31.00;32.80
680;DHT22;322;48.846;9.230;2023-07-13T13:48:15;31.20;32.20
680;DHT22;322;48.846;9.230;2023-07-13T13:50:43;31.40;32.00
680;DHT22;322;48.846;9.230;2023-07-13T13:53:12;30.60;34.60
680;DHT22;322;48.846;9.230;2023-07-13T13:55:42;29.90;34.00
680;DHT22;322;48.846;9.230;2023-07-13T13:58:10;29.90;34.10
680;DHT22;322;48.846;9.230;2023-07-13T14:00:38;30.40;34.30
680;DHT22;322;48.846;9.230;2023-07-13T14:03:14;31.00;31.70
680;DHT22;322;48.846;9.230;2023-07-13T14:05:42;31.00;32.10
680;DHT22;322;48.846;9.230;2023-07-13T14:08:13;30.60;31.70
680;DHT22;322;48.846;9.230;2023-07-13T14:10:44;30.20;33.00
680;DHT22;322;48.846;9.230;2023-07-13T14:13:16;29.40;33.00
680;DHT22;322;48.846;9.230;2023-07-13T14:15:45;28.60;35.50
680;DHT22;322;48.846;9.230;2023-07-13T14:18:14;28.70;35.60
680;DHT22;322;48.846;9.230;2023-07-13T14:20:45;28.50;34.80
680;DHT22;322;48.846;9.230;2023-07-13T14:23:14;28.20;35.10
680;DHT22;322;48.846;9.230;2023-07-13T14:25:44;28.40;35.30
680;DHT22;322;48.846;9.230;2023-07-13T14:28:20;28.00;35.70
680;DHT22;322;48.846;9.230;2023-07-13T14:30:49;27.90;35.90
680;DHT22;322;48.846;9.230;2023-07-13T14:33:18;28.90;34.90
680;DHT22;322;48.846;9.230;2023-07-13T14:35:46;29.60;33.80
680;DHT22;322;48.846;9.230;2023-07-13T14:38:18;30.00;33.20
680;DHT22;322;48.846;9.230;2023-07-13T14:40:48;30.40;31.90
680;DHT22;322;48.846;9.230;2023-07-13T14:43:17;30.40;32.30
680;DHT22;322;48.846;9.230;2023-07-13T14:45:47;30.40;33.00
680;DHT22;322;48.846;9.230;2023-07-13T14:48:20;30.30;32.80
680;DHT22;322;48.846;9.230;2023-07-13T14:50:53;30.40;33.60
680;DHT22;322;48.846;9.230;2023-07-13T14:53:21;30.70;32.60
680;DHT22;322;48.846;9.230;2023-07-13T14:55:51;30.80;32.00
680;DHT22;322;48.846;9.230;2023-07-13T14:58:19;30.40;32.50
680;DHT22;322;48.846;9.230;2023-07-13T15:00:47;30.40;32.80
680;DHT22;322;48.846;9.230;2023-07-13T15:03:19;30.20;33.70
680;DHT22;322;48.846;9.230;2023-07-13T15:05:49;30.30;33.10
680;DHT22;322;48.846;9.230;2023-07-13T15:08:18;30.50;33.20
680;DHT22;322;48.846;9.230;2023-07-13T15:10:46;30.50;33.80
680;DHT22;322;48.846;9.230;2023-07-13T15:13:17;30.70;33.40
680;DHT22;322;48.846;9.230;2023-07-13T15:15:46;30.60;33.20
680;DHT22;322;48.846;9.230;2023-07-13T15:18:16;30.40;34.40
680;DHT22;322;48.846;9.230;2023-07-13T15:20:45;30.40;33.10
680;DHT22;322;48.846;9.230;2023-07-13T15:23:15;30.40;33.00
680;DHT22;322;48.846;9.230;2023-07-13T15:25:44;30.20;33.40
680;DHT22;322;48.846;9.230;2023-07-13T15:28:12;30.50;34.20
680;DHT22;322;48.846;9.230;2023-07-13T15:30:45;30.40;33.30
680;DHT22;322;48.846;9.230;2023-07-13T15:33:17;30.10;33.50
680;DHT22;322;48.846;9.230;2023-07-13T15:35:46;30.10;34.20
680;DHT22;322;48.846;9.230;2023-07-13T15:38:17;30.10;34.30
680;DHT22;322;48.846;9.230;2023-07-13T15:40:47;30.10;33.90
680;DHT22;322;48.846;9.230;2023-07-13T15:43:16;30.20;33.50
680;DHT22;322;48.846;9.230;2023-07-13T15:45:47;30.10;33.90
680;DHT22;322;48.846;9.230;2023-07-13T15:48:17;30.00;34.40
680;DHT22;322;48.846;9.230;2023-07-13T15:50:46;29.80;34.90
680;DHT22;322;48.846;9.230;2023-07-13T15:53:18;29.60;34.30
680;DHT22;322;48.846;9.230;2023-07-13T15:55:47;29.10;34.90
680;DHT22;322;48.846;9.230;2023-07-13T15:58:16;29.30;35.90
680;DHT22;322;48.846;9.230;2023-07-13T16:00:47;29.50;34.70
680;DHT22;322;48.846;9.230;2023-07-13T16:03:18;29.70;34.10
680;DHT22;322;48.846;9.230;2023-07-13T16:05:46;29.50;34.60
680;DHT22;322;48.846;9.230;2023-07-13T16:08:21;29.50;34.80
680;DHT22;322;48.846;9.230;2023-07-13T16:10:50;29.80;35.10
680;DHT22;322;48.846;9.230;2023-07-13T16:13:20;29.70;35.00
680;DHT22;322;48.846;9.230;2023-07-13T16:15:49;29.40;34.80
680;DHT22;322;48.846;9.230;2023-07-13T16:18:17;29.30;35.10
680;DHT22;322;48.846;9.230;2023-07-13T16:20:47;29.40;34.90
680;DHT22;322;48.846;9.230;2023-07-13T16:23:17;29.50;35.10
680;DHT22;322;48.846;9.230;2023-07-13T16:25:45;29.60;34.70
680;DHT22;322;48.846;9.230;2023-07-13T16:28:15;29.50;34.20
680;DHT22;322;48.846;9.230;2023-07-13T16:30:43;29.70;35.60
680;DHT22;322;48.846;9.230;2023-07-13T16:33:13;29.80;34.50
680;DHT22;322;48.846;9.230;2023-07-13T16:35:41;29.80;34.60
680;DHT22;322;48.846;9.230;2023-07-13T16:38:14;30.20;34.30
680;DHT22;322;48.846;9.230;2023-07-13T16:40:42;29.90;33.80
680;DHT22;322;48.846;9.230;2023-07-13T16:43:13;28.90;34.80
680;DHT22;322;48.846;9.230;2023-07-13T16:45:41;28.20;36.00
680;DHT22;322;48.846;9.230;2023-07-13T16:48:14;28.40;36.40
680;DHT22;322;48.846;9.230;2023-07-13T16:50:44;28.20;36.30
680;DHT22;322;48.846;9.230;2023-07-13T16:53:18;28.30;36.10
680;DHT22;322;48.846;9.230;2023-07-13T16:55:46;28.20;36.70